Rancho Bernardo, California
Current Conditions -  °F | °C
As of 1:21 AM on Tuesday 21 Oct 2014 (Local Time) from KRNM Reporting Station
Haze Haze  
Wind Chill: 60°   Ceiling: 400
Heat Index: 60°   Visibility: 4mi
Dew Point: 58°   Wind: 0mph
Humidity: 93%   Direction: NA
Pressure: 29.92"   Gusts: NA
Location:  33.0024°N, 117.071°W
Report Text: KRNM 210821Z AUTO 00000KT 4SM BR OVC004 16/14 A2992 RMK AO2 T01560144 TSNO
Loading
Personal Weather Stations






























Interactive Weather Map
Tropical Storm Tracking
New forecast layout! Learn more

10-Day Weather Forecast

Advertisements
Track Severe Weather on mobile